Time;durP1;ratioP1;P1;durP2;ratioP2;P2;SDS_P1;SDS_P2;PMS_P1;PMS_P2;Temp;Humidity;BMP_temperature;BMP_pressure;BME280_temperature;BME280_humidity;BME280_pressure;Samples;Min_cycle;Max_cycle;Signal;HPM_P1;HPM_P2
2023/05/01 00:02:25;;;;;;;0.70;0.60;;;12.50;99.90;;;;;;5032390;28;20205;-65
2023/05/01 00:04:53;;;;;;;0.70;0.65;;;12.50;99.90;;;;;;5027614;28;20232;-66
2023/05/01 00:07:21;;;;;;;0.50;0.35;;;12.50;99.90;;;;;;5030402;28;20263;-66
2023/05/01 00:09:50;;;;;;;0.55;0.40;;;12.50;99.90;;;;;;5021969;28;20296;-65
2023/05/01 00:12:18;;;;;;;0.50;0.30;;;12.50;99.90;;;;;;5024238;28;20216;-66
2023/05/01 00:14:46;;;;;;;2.20;1.30;;;12.50;99.90;;;;;;5027660;28;20221;-64
2023/05/01 00:17:14;;;;;;;0.70;0.40;;;12.40;99.90;;;;;;5027981;28;20626;-65
2023/05/01 00:19:43;;;;;;;0.60;0.40;;;12.40;99.90;;;;;;5027971;28;20283;-65
2023/05/01 00:22:11;;;;;;;0.60;0.40;;;12.40;99.90;;;;;;5033281;28;20287;-65
2023/05/01 00:24:38;;;;;;;0.55;0.40;;;12.40;99.90;;;;;;5027595;28;20217;-66
2023/05/01 00:27:06;;;;;;;0.50;0.40;;;12.40;99.90;;;;;;5027085;28;20776;-64
2023/05/01 00:29:34;;;;;;;0.68;0.63;;;12.40;99.90;;;;;;5031569;28;20294;-65
2023/05/01 00:32:04;;;;;;;0.60;0.40;;;12.40;99.90;;;;;;5027132;28;20195;-65
2023/05/01 00:34:32;;;;;;;0.60;0.40;;;12.40;99.90;;;;;;5024276;28;20248;-67
2023/05/01 00:37:01;;;;;;;0.60;0.60;;;12.30;99.90;;;;;;5027128;28;20689;-65
2023/05/01 00:39:29;;;;;;;0.80;0.70;;;12.40;99.90;;;;;;5028073;28;20224;-66
2023/05/01 00:41:57;;;;;;;0.60;0.47;;;12.40;99.90;;;;;;5032772;28;20252;-67
2023/05/01 00:44:25;;;;;;;0.75;0.57;;;12.40;99.90;;;;;;5024892;28;20658;-66
2023/05/01 00:46:55;;;;;;;0.50;0.40;;;12.30;99.90;;;;;;5028988;28;20270;-65
2023/05/01 00:49:23;;;;;;;0.60;0.40;;;12.30;99.90;;;;;;5027332;28;20238;-66
2023/05/01 00:51:52;;;;;;;0.60;0.40;;;12.20;99.90;;;;;;5035318;28;20209;-65
2023/05/01 00:54:24;;;;;;;0.50;0.40;;;12.30;99.90;;;;;;5029440;28;20592;-65
2023/05/01 00:56:52;;;;;;;0.50;0.40;;;12.30;99.90;;;;;;5030531;28;20211;-66
2023/05/01 00:59:21;;;;;;;0.57;0.40;;;12.30;99.90;;;;;;5034134;28;20283;-65
2023/05/01 01:01:50;;;;;;;0.55;0.45;;;12.30;99.90;;;;;;5032215;28;20205;-65
2023/05/01 01:04:20;;;;;;;0.50;0.40;;;12.20;99.90;;;;;;5029462;28;20240;-65
2023/05/01 01:06:55;;;;;;;0.60;0.50;;;12.40;99.90;;;;;;5033742;28;20209;-65
2023/05/01 01:09:34;;;;;;;0.50;0.40;;;12.40;99.90;;;;;;5026284;28;20204;-66
2023/05/01 01:12:20;;;;;;;0.75;0.68;;;12.40;99.90;;;;;;5028744;28;20204;-65
2023/05/01 01:14:54;;;;;;;0.60;0.43;;;12.50;99.90;;;;;;5029670;28;20225;-64
2023/05/01 01:17:30;;;;;;;0.60;0.43;;;12.30;99.90;;;;;;5030508;28;20236;-65
2023/05/01 01:20:19;;;;;;;0.65;0.40;;;12.20;99.90;;;;;;5028653;28;20201;-66
2023/05/01 01:22:52;;;;;;;0.60;0.50;;;12.10;99.90;;;;;;5029550;28;20205;-65
2023/05/01 01:26:03;;;;;;;0.60;0.43;;;11.90;99.90;;;;;;5023353;28;20700;-65
2023/05/01 01:29:04;;;;;;;0.60;0.50;;;11.90;99.90;;;;;;5026211;28;20240;-65
2023/05/01 01:31:40;;;;;;;0.60;0.47;;;11.90;99.90;;;;;;4935922;28;20238;-65
2023/05/01 01:34:14;;;;;;;0.60;0.40;;;11.80;99.90;;;;;;5028660;28;20223;-65
2023/05/01 01:36:48;;;;;;;1.35;0.80;;;11.80;99.90;;;;;;5024650;28;20222;-65
2023/05/01 01:39:26;;;;;;;0.63;0.52;;;11.80;99.90;;;;;;5027100;28;20296;-64
2023/05/01 01:41:57;;;;;;;0.77;0.57;;;11.70;99.90;;;;;;5036580;28;20291;-64
2023/05/01 01:44:33;;;;;;;0.60;0.40;;;11.70;99.90;;;;;;5030433;28;20303;-64
2023/05/01 01:47:05;;;;;;;0.60;0.50;;;11.80;99.90;;;;;;5024816;28;20712;-65
2023/05/01 01:49:37;;;;;;;0.60;0.50;;;11.70;99.90;;;;;;5028692;28;20227;-65
2023/05/01 01:52:07;;;;;;;0.60;0.50;;;11.70;99.90;;;;;;5030605;28;20211;-65
2023/05/01 01:54:40;;;;;;;0.50;0.40;;;11.70;99.90;;;;;;5030523;28;20242;-64
2023/05/01 01:57:11;;;;;;;0.60;0.60;;;11.60;99.90;;;;;;5023170;28;20292;-65
2023/05/01 01:59:41;;;;;;;0.57;0.43;;;11.60;99.90;;;;;;5029427;28;20919;-65
2023/05/01 02:02:11;;;;;;;0.70;0.50;;;11.60;99.90;;;;;;5020975;28;20292;-65
2023/05/01 02:04:42;;;;;;;0.60;0.50;;;11.60;99.90;;;;;;5025395;28;20236;-65
2023/05/01 02:07:13;;;;;;;0.60;0.40;;;11.50;99.90;;;;;;5027215;28;20758;-65
2023/05/01 02:09:42;;;;;;;0.60;0.40;;;11.50;99.90;;;;;;5028001;28;20690;-65
2023/05/01 02:12:11;;;;;;;0.70;0.40;;;11.50;99.90;;;;;;5035391;28;20258;-65
2023/05/01 02:14:41;;;;;;;0.50;0.40;;;11.60;99.90;;;;;;5022731;28;20225;-66
2023/05/01 02:17:10;;;;;;;0.60;0.50;;;11.50;99.90;;;;;;5023969;28;21030;-65
2023/05/01 02:19:40;;;;;;;0.60;0.50;;;11.50;99.90;;;;;;5031398;28;20280;-66
2023/05/01 02:22:09;;;;;;;0.60;0.40;;;11.50;99.90;;;;;;5029348;28;20286;-65
2023/05/01 02:24:38;;;;;;;0.90;0.63;;;11.50;99.90;;;;;;5024723;28;20225;-66
2023/05/01 02:27:13;;;;;;;0.60;0.40;;;11.60;99.90;;;;;;5021631;28;20717;-65
2023/05/01 02:29:41;;;;;;;0.60;0.47;;;11.60;99.90;;;;;;5016120;28;20204;-65
2023/05/01 02:32:09;;;;;;;0.60;0.50;;;11.60;99.90;;;;;;5024912;28;20667;-64
2023/05/01 02:34:37;;;;;;;0.60;0.60;;;11.60;99.90;;;;;;5022265;28;20599;-65
2023/05/01 02:37:07;;;;;;;0.60;0.50;;;11.60;99.90;;;;;;5030723;28;20203;-64
2023/05/01 02:39:35;;;;;;;0.60;0.47;;;11.60;99.90;;;;;;5031628;28;20292;-64
2023/05/01 02:42:05;;;;;;;0.60;0.50;;;11.60;99.90;;;;;;5036698;28;20239;-64
2023/05/01 02:44:39;;;;;;;0.60;0.50;;;11.50;99.90;;;;;;5026680;28;20229;-64
2023/05/01 02:47:09;;;;;;;0.57;0.45;;;11.40;99.90;;;;;;5031661;28;20284;-65
2023/05/01 02:49:39;;;;;;;1.10;0.95;;;11.40;99.90;;;;;;5034795;28;20212;-65
2023/05/01 02:52:10;;;;;;;0.50;0.40;;;11.30;99.90;;;;;;5032273;28;20204;-64
2023/05/01 02:54:38;;;;;;;0.60;0.50;;;11.40;99.90;;;;;;5029913;28;20239;-66
2023/05/01 02:57:06;;;;;;;0.60;0.40;;;11.40;99.90;;;;;;5030031;28;20206;-64
2023/05/01 02:59:34;;;;;;;0.80;0.50;;;11.30;99.90;;;;;;5030546;28;20916;-64
2023/05/01 03:02:02;;;;;;;0.60;0.40;;;11.20;99.90;;;;;;5025399;28;20205;-65
2023/05/01 03:04:30;;;;;;;0.70;0.70;;;11.10;99.90;;;;;;5023897;28;20249;-65
2023/05/01 03:06:58;;;;;;;0.68;0.68;;;11.00;99.90;;;;;;5033454;28;20224;-65
2023/05/01 03:09:27;;;;;;;0.70;0.60;;;11.00;99.90;;;;;;5035282;28;20232;-66
2023/05/01 03:11:55;;;;;;;0.60;0.40;;;11.20;99.90;;;;;;5023933;28;20284;-65
2023/05/01 03:14:23;;;;;;;0.60;0.55;;;11.20;99.90;;;;;;5027466;28;20229;-64
2023/05/01 03:16:51;;;;;;;0.70;0.50;;;11.10;99.90;;;;;;5031300;28;20730;-65
2023/05/01 03:19:19;;;;;;;2.15;0.88;;;11.10;99.90;;;;;;5023598;28;20204;-65
2023/05/01 03:21:47;;;;;;;0.70;0.60;;;11.00;99.90;;;;;;5027413;28;20215;-65
2023/05/01 03:24:15;;;;;;;0.50;0.40;;;11.10;99.90;;;;;;5035792;28;20715;-65
2023/05/01 03:26:44;;;;;;;0.60;0.47;;;11.00;99.90;;;;;;5041158;28;20220;-65
2023/05/01 03:29:12;;;;;;;0.60;0.50;;;11.00;99.90;;;;;;5044337;28;20663;-65
2023/05/01 03:31:40;;;;;;;0.70;0.40;;;10.80;99.90;;;;;;5022921;28;20208;-65
2023/05/01 03:34:08;;;;;;;0.55;0.40;;;10.70;99.90;;;;;;5026062;28;20224;-65
2023/05/01 03:36:36;;;;;;;0.60;0.40;;;10.80;99.90;;;;;;5037776;28;20215;-66
2023/05/01 03:39:07;;;;;;;0.68;0.50;;;10.80;99.90;;;;;;5023085;28;20585;-65
2023/05/01 03:41:35;;;;;;;0.60;0.45;;;10.80;99.90;;;;;;5043936;28;20286;-66
2023/05/01 03:44:04;;;;;;;0.82;0.65;;;10.80;99.90;;;;;;5040040;28;20234;-65
2023/05/01 03:46:32;;;;;;;1.23;0.88;;;10.80;99.90;;;;;;5032426;28;20695;-66
2023/05/01 03:49:00;;;;;;;0.60;0.60;;;10.80;99.90;;;;;;5028665;28;20209;-66
2023/05/01 03:51:28;;;;;;;0.70;0.70;;;11.00;99.90;;;;;;5025689;28;20295;-68
2023/05/01 03:53:57;;;;;;;0.50;0.40;;;11.10;99.90;;;;;;5031295;28;20224;-68
2023/05/01 03:56:26;;;;;;;0.70;0.40;;;11.10;99.90;;;;;;5031739;28;20234;-66
2023/05/01 03:58:54;;;;;;;0.60;0.50;;;11.20;99.90;;;;;;5019232;28;20280;-66
2023/05/01 04:01:23;;;;;;;0.60;0.50;;;11.10;99.90;;;;;;5028802;28;20208;-66
2023/05/01 04:03:51;;;;;;;0.60;0.50;;;11.10;99.90;;;;;;5025358;28;20258;-65
2023/05/01 04:06:19;;;;;;;0.70;0.50;;;10.90;99.90;;;;;;5024902;28;20802;-66
2023/05/01 04:08:47;;;;;;;0.80;0.80;;;10.80;99.90;;;;;;5025961;28;20209;-65
2023/05/01 04:11:15;;;;;;;0.75;0.47;;;10.90;99.90;;;;;;5030386;28;20209;-66
2023/05/01 04:13:43;;;;;;;0.93;0.55;;;10.80;99.90;;;;;;5026978;28;20239;-65
2023/05/01 04:16:11;;;;;;;0.70;0.52;;;10.70;99.90;;;;;;5028809;28;20260;-66
2023/05/01 04:18:40;;;;;;;0.50;0.40;;;10.70;99.90;;;;;;5029408;28;20204;-65
2023/05/01 04:21:08;;;;;;;0.60;0.50;;;10.60;99.90;;;;;;5028856;28;20651;-65
2023/05/01 04:23:36;;;;;;;0.80;0.50;;;10.60;99.90;;;;;;5029914;28;20781;-65
2023/05/01 04:26:04;;;;;;;0.80;0.50;;;10.70;99.90;;;;;;5024092;28;20207;-65
2023/05/01 04:28:32;;;;;;;0.60;0.40;;;10.60;99.90;;;;;;5020468;28;20288;-66
2023/05/01 04:31:00;;;;;;;0.70;0.60;;;10.60;99.90;;;;;;5034523;28;20214;-65
2023/05/01 04:33:28;;;;;;;0.50;0.40;;;10.70;99.90;;;;;;5024231;28;20228;-65
2023/05/01 04:35:57;;;;;;;0.70;0.57;;;10.70;99.90;;;;;;5027188;28;20204;-65
2023/05/01 04:38:25;;;;;;;0.60;0.40;;;10.80;99.90;;;;;;5030804;28;20211;-65
2023/05/01 04:40:53;;;;;;;1.23;0.73;;;10.90;99.90;;;;;;5030644;28;21278;-65
2023/05/01 04:43:21;;;;;;;0.60;0.60;;;10.90;99.90;;;;;;5026559;28;20259;-64
2023/05/01 04:45:49;;;;;;;5.55;0.77;;;10.80;99.90;;;;;;5026717;28;20197;-65
2023/05/01 04:48:17;;;;;;;0.70;0.70;;;10.90;99.90;;;;;;5026616;28;20343;-65
2023/05/01 04:50:45;;;;;;;1.02;0.77;;;11.00;99.90;;;;;;5023553;28;20897;-65
2023/05/01 04:53:14;;;;;;;0.60;0.50;;;11.00;99.90;;;;;;5027472;28;20781;-65
2023/05/01 04:55:42;;;;;;;0.60;0.47;;;11.10;99.90;;;;;;5038700;28;20234;-65
2023/05/01 04:58:10;;;;;;;1.70;0.57;;;11.10;99.90;;;;;;5036879;28;20291;-64
2023/05/01 05:00:38;;;;;;;0.90;0.80;;;11.10;99.90;;;;;;5025717;28;20209;-65
2023/05/01 05:03:06;;;;;;;0.63;0.50;;;11.20;99.90;;;;;;5026489;28;20255;-65
2023/05/01 05:05:35;;;;;;;2.00;0.50;;;11.20;99.90;;;;;;5030925;28;20213;-65
2023/05/01 05:08:03;;;;;;;0.50;0.38;;;11.30;99.90;;;;;;5020080;28;20244;-65
2023/05/01 05:10:32;;;;;;;0.60;0.40;;;11.30;99.90;;;;;;5025286;28;20258;-65
2023/05/01 05:13:00;;;;;;;0.57;0.47;;;11.30;99.90;;;;;;5025093;28;20674;-65
2023/05/01 05:15:28;;;;;;;0.50;0.40;;;11.30;99.90;;;;;;5028310;28;20208;-65
2023/05/01 05:17:55;;;;;;;0.60;0.50;;;11.30;99.90;;;;;;5027387;28;20207;-65
2023/05/01 05:20:23;;;;;;;0.70;0.60;;;11.30;99.90;;;;;;5036439;28;20208;-64
2023/05/01 05:22:51;;;;;;;0.60;0.57;;;11.40;99.90;;;;;;5033521;28;20196;-65
2023/05/01 05:25:19;;;;;;;0.70;0.40;;;11.40;99.90;;;;;;5036716;28;20281;-65
2023/05/01 05:27:48;;;;;;;0.70;0.60;;;11.50;99.90;;;;;;5028593;28;20714;-65
2023/05/01 05:30:16;;;;;;;0.77;0.60;;;11.50;99.90;;;;;;5031424;28;20286;-65
2023/05/01 05:32:46;;;;;;;1.50;0.60;;;11.60;99.90;;;;;;5024701;28;20595;-64
2023/05/01 05:35:14;;;;;;;0.60;0.50;;;11.60;99.90;;;;;;5037998;28;20208;-66
2023/05/01 05:37:43;;;;;;;0.73;0.60;;;11.60;99.90;;;;;;5027048;28;20235;-65
2023/05/01 05:40:13;;;;;;;0.63;0.63;;;11.70;99.90;;;;;;5018939;28;20201;-64
2023/05/01 05:42:41;;;;;;;0.60;0.40;;;11.70;99.90;;;;;;5026268;28;20557;-65
2023/05/01 05:45:11;;;;;;;0.70;0.70;;;11.80;99.90;;;;;;5022479;28;20228;-65
2023/05/01 05:47:39;;;;;;;1.10;0.50;;;11.90;99.90;;;;;;5029361;28;20221;-65
2023/05/01 05:50:08;;;;;;;0.75;0.57;;;12.00;99.90;;;;;;5028607;28;20564;-65
2023/05/01 05:52:36;;;;;;;0.60;0.50;;;12.10;99.90;;;;;;5028947;28;20301;-65
2023/05/01 05:55:05;;;;;;;0.90;0.80;;;12.30;99.90;;;;;;5017281;28;20228;-65
2023/05/01 05:57:35;;;;;;;1.80;0.68;;;12.30;99.90;;;;;;5031129;28;20223;-66
2023/05/01 06:00:05;;;;;;;0.80;0.80;;;12.40;99.90;;;;;;5033116;28;20224;-65
2023/05/01 06:02:34;;;;;;;1.02;0.60;;;12.40;99.90;;;;;;5019174;28;20299;-65
2023/05/01 06:05:02;;;;;;;0.70;0.50;;;12.50;99.90;;;;;;5133380;22;20302;-72
2023/05/01 06:07:30;;;;;;;1.88;0.70;;;12.50;99.90;;;;;;5016140;28;20614;-72
2023/05/01 06:10:02;;;;;;;0.60;0.40;;;12.60;99.90;;;;;;5012747;28;20288;-73
2023/05/01 06:12:31;;;;;;;0.80;0.40;;;12.60;99.90;;;;;;5012655;28;20282;-72
2023/05/01 06:15:02;;;;;;;0.77;0.70;;;12.60;99.90;;;;;;5011475;28;20225;-72
2023/05/01 06:17:30;;;;;;;0.70;0.70;;;12.70;99.90;;;;;;5012962;28;20627;-72
2023/05/01 06:20:00;;;;;;;0.60;0.50;;;12.90;99.90;;;;;;5015941;28;20223;-73
2023/05/01 06:22:28;;;;;;;0.60;0.50;;;13.00;99.90;;;;;;5013110;28;20240;-73
2023/05/01 06:24:56;;;;;;;0.70;0.65;;;13.10;99.90;;;;;;5013474;28;20256;-73
2023/05/01 06:27:24;;;;;;;0.60;0.60;;;13.30;99.90;;;;;;5015228;28;20208;-72
2023/05/01 06:29:52;;;;;;;0.93;0.73;;;13.40;99.90;;;;;;5019237;28;20307;-72
2023/05/01 06:32:20;;;;;;;0.73;0.73;;;13.60;99.90;;;;;;5011246;28;20224;-69
2023/05/01 06:34:48;;;;;;;0.65;0.50;;;13.70;99.90;;;;;;5009010;28;20224;-71
2023/05/01 06:37:17;;;;;;;0.50;0.40;;;13.70;99.90;;;;;;5009502;28;20201;-71
2023/05/01 06:39:45;;;;;;;0.70;0.68;;;13.70;99.90;;;;;;5010211;28;20205;-71
2023/05/01 06:42:15;;;;;;;0.60;0.60;;;13.80;99.90;;;;;;5019677;28;20215;-72
2023/05/01 06:44:42;;;;;;;0.60;0.40;;;13.80;99.90;;;;;;5008733;28;20229;-71
2023/05/01 06:47:10;;;;;;;0.85;0.50;;;13.80;99.90;;;;;;5017710;28;20331;-71
2023/05/01 06:49:38;;;;;;;0.70;0.60;;;13.90;99.90;;;;;;5013699;28;20283;-71
2023/05/01 06:52:06;;;;;;;0.60;0.50;;;13.90;99.90;;;;;;5016616;28;20197;-71
2023/05/01 06:54:35;;;;;;;0.60;0.50;;;14.00;99.90;;;;;;5019358;28;20221;-71
2023/05/01 06:57:04;;;;;;;0.63;0.57;;;14.00;99.90;;;;;;5020679;28;20251;-71
2023/05/01 06:59:31;;;;;;;1.10;1.00;;;14.10;99.90;;;;;;5012759;28;20707;-70
2023/05/01 07:01:59;;;;;;;1.20;0.88;;;14.20;99.90;;;;;;5018772;28;20211;-72
2023/05/01 07:04:27;;;;;;;0.80;0.50;;;14.20;99.90;;;;;;5016724;28;20260;-70
2023/05/01 07:06:55;;;;;;;0.60;0.40;;;14.30;99.90;;;;;;5019461;28;20205;-70
2023/05/01 07:09:23;;;;;;;0.90;0.68;;;14.30;99.90;;;;;;5014189;28;20221;-70
2023/05/01 07:11:52;;;;;;;0.80;0.70;;;14.20;99.90;;;;;;5015605;28;20205;-72
2023/05/01 07:14:20;;;;;;;0.60;0.50;;;14.20;99.90;;;;;;5018832;28;20300;-71
2023/05/01 07:16:48;;;;;;;0.65;0.57;;;14.30;99.90;;;;;;5015519;28;20219;-71
2023/05/01 07:19:16;;;;;;;0.60;0.50;;;14.30;99.90;;;;;;5018788;28;20209;-70
2023/05/01 07:21:44;;;;;;;0.60;0.50;;;14.30;99.90;;;;;;5017633;28;20311;-70
2023/05/01 07:24:12;;;;;;;0.70;0.65;;;14.30;99.90;;;;;;5018293;28;20224;-70
2023/05/01 07:26:40;;;;;;;0.57;0.40;;;14.20;99.90;;;;;;5017352;28;20223;-71
2023/05/01 07:29:09;;;;;;;0.60;0.50;;;14.30;99.90;;;;;;5016664;28;20242;-70
2023/05/01 07:31:37;;;;;;;1.33;1.00;;;14.20;99.90;;;;;;5019182;28;20213;-70
2023/05/01 07:34:06;;;;;;;0.77;0.65;;;14.20;99.90;;;;;;5016239;28;20691;-71
2023/05/01 07:36:34;;;;;;;1.52;0.93;;;14.20;99.90;;;;;;5013102;28;20232;-70
2023/05/01 07:39:02;;;;;;;0.60;0.40;;;14.40;99.90;;;;;;5013794;28;20205;-70
2023/05/01 07:41:30;;;;;;;0.60;0.40;;;14.30;99.90;;;;;;5017551;28;20235;-70
2023/05/01 07:43:58;;;;;;;0.60;0.50;;;14.30;99.90;;;;;;5018932;28;20224;-69
2023/05/01 07:46:28;;;;;;;0.60;0.50;;;14.40;99.90;;;;;;5018516;28;20200;-70
2023/05/01 07:48:56;;;;;;;1.05;0.50;;;14.50;99.90;;;;;;5018808;28;20228;-72
2023/05/01 07:51:24;;;;;;;0.60;0.50;;;14.60;99.90;;;;;;5016325;28;20213;-71
2023/05/01 07:53:52;;;;;;;1.30;0.82;;;14.60;99.90;;;;;;5020626;28;20227;-70
2023/05/01 07:56:20;;;;;;;0.75;0.60;;;14.70;99.90;;;;;;5014662;28;20550;-71
2023/05/01 07:58:48;;;;;;;0.98;0.88;;;14.90;99.90;;;;;;5017405;28;20292;-70
2023/05/01 08:01:16;;;;;;;0.65;0.60;;;15.00;99.90;;;;;;5016409;28;20284;-71
2023/05/01 08:03:45;;;;;;;1.17;0.70;;;15.10;99.90;;;;;;5014620;28;20280;-70
2023/05/01 08:06:16;;;;;;;0.60;0.40;;;15.10;99.90;;;;;;4995273;28;20202;-70
2023/05/01 08:08:44;;;;;;;0.75;0.70;;;15.10;99.90;;;;;;4999279;28;20255;-71
2023/05/01 08:11:12;;;;;;;0.80;0.47;;;15.20;99.90;;;;;;4999094;28;20209;-72
2023/05/01 08:13:40;;;;;;;0.60;0.40;;;15.30;99.90;;;;;;4997038;28;20284;-71
2023/05/01 08:16:08;;;;;;;0.60;0.50;;;15.30;99.90;;;;;;5000422;28;20251;-69
2023/05/01 08:18:35;;;;;;;0.98;0.88;;;15.30;99.90;;;;;;4998835;28;20206;-70
2023/05/01 08:21:05;;;;;;;0.60;0.50;;;15.40;99.90;;;;;;4995806;28;20206;-71
2023/05/01 08:23:33;;;;;;;0.60;0.47;;;15.70;99.90;;;;;;4996493;28;20233;-71
2023/05/01 08:26:01;;;;;;;0.70;0.50;;;15.80;99.90;;;;;;4998570;28;20202;-73
2023/05/01 08:28:29;;;;;;;0.70;0.60;;;15.80;99.90;;;;;;4994222;28;20228;-70
2023/05/01 08:30:57;;;;;;;0.50;0.40;;;15.90;99.90;;;;;;4997808;28;20284;-70
2023/05/01 08:33:25;;;;;;;0.60;0.50;;;16.00;99.90;;;;;;4993398;28;20252;-70
2023/05/01 08:35:53;;;;;;;0.90;0.70;;;15.90;99.90;;;;;;4996142;28;20259;-70
2023/05/01 08:38:22;;;;;;;0.60;0.60;;;15.90;99.90;;;;;;4992587;28;20645;-70
2023/05/01 08:40:52;;;;;;;1.55;1.00;;;16.10;99.90;;;;;;4990756;28;20293;-73
2023/05/01 08:43:20;;;;;;;0.80;0.80;;;16.10;99.90;;;;;;5000643;28;20247;-73
2023/05/01 08:45:49;;;;;;;0.60;0.50;;;16.20;99.90;;;;;;5004682;28;20250;-73
2023/05/01 08:48:18;;;;;;;0.55;0.43;;;16.30;99.90;;;;;;4994499;28;20577;-72
2023/05/01 08:50:47;;;;;;;0.80;0.77;;;16.30;99.90;;;;;;4985652;28;20230;-72
2023/05/01 08:53:17;;;;;;;0.65;0.50;;;16.50;99.90;;;;;;4992203;28;20578;-72
2023/05/01 08:55:48;;;;;;;1.17;1.08;;;16.50;99.90;;;;;;4992469;28;20333;-72
2023/05/01 08:58:18;;;;;;;0.65;0.52;;;16.50;99.90;;;;;;4993672;28;20260;-72
2023/05/01 09:00:47;;;;;;;0.70;0.70;;;16.60;99.90;;;;;;4992849;28;20288;-72
2023/05/01 09:03:16;;;;;;;1.17;1.08;;;16.60;99.90;;;;;;4991569;28;20238;-73
2023/05/01 09:05:45;;;;;;;0.60;0.55;;;16.70;99.90;;;;;;5006958;28;21174;-72
2023/05/01 09:08:13;;;;;;;0.88;0.82;;;16.90;99.90;;;;;;5015798;28;20217;-75
2023/05/01 09:10:45;;;;;;;0.70;0.70;;;16.90;99.90;;;;;;5014583;28;20306;-72
2023/05/01 09:13:14;;;;;;;0.80;0.50;;;17.00;99.90;;;;;;5015083;28;20304;-74
2023/05/01 09:15:43;;;;;;;0.77;0.70;;;17.10;99.90;;;;;;5009980;28;20229;-72
2023/05/01 09:18:11;;;;;;;0.93;0.93;;;17.10;99.90;;;;;;5012935;28;20347;-73
2023/05/01 09:20:40;;;;;;;0.80;0.60;;;17.10;99.90;;;;;;5015475;28;20226;-73
2023/05/01 09:23:08;;;;;;;1.23;1.13;;;17.20;99.90;;;;;;4999021;28;20197;-73
2023/05/01 09:25:37;;;;;;;1.75;1.25;;;17.10;99.90;;;;;;5013606;28;20220;-72
2023/05/01 09:28:05;;;;;;;0.80;0.70;;;17.20;99.90;;;;;;5011114;28;20235;-72
2023/05/01 09:30:36;;;;;;;1.77;1.67;;;17.10;99.90;;;;;;5010779;28;20328;-72
2023/05/01 09:33:05;;;;;;;1.00;0.60;;;17.20;99.90;;;;;;5020404;28;20265;-72
2023/05/01 09:35:49;;;;;;;0.73;0.70;;;17.40;99.90;;;;;;5011025;28;20291;-72
2023/05/01 09:38:22;;;;;;;1.05;0.95;;;17.70;99.90;;;;;;5016488;28;20208;-72
2023/05/01 09:40:50;;;;;;;0.60;0.50;;;17.90;99.90;;;;;;5016340;28;20232;-72
2023/05/01 09:43:26;;;;;;;1.25;0.88;;;17.90;99.90;;;;;;5011156;28;20213;-72
2023/05/01 09:46:05;;;;;;;0.90;0.75;;;18.10;99.90;;;;;;5015152;28;20707;-73
2023/05/01 09:48:33;;;;;;;0.52;0.40;;;18.10;99.90;;;;;;5008067;28;20286;-74
2023/05/01 09:51:20;;;;;;;0.70;0.60;;;18.40;99.90;;;;;;5006330;28;20790;-72
2023/05/01 09:53:48;;;;;;;1.13;0.50;;;18.70;99.90;;;;;;5014628;28;20216;-72
2023/05/01 09:56:17;;;;;;;0.60;0.52;;;18.80;99.90;;;;;;5017327;28;20231;-71
2023/05/01 09:58:45;;;;;;;0.60;0.50;;;19.00;99.90;;;;;;5013844;28;20210;-71
2023/05/01 10:01:15;;;;;;;0.60;0.40;;;19.10;99.90;;;;;;5012493;28;20205;-72
2023/05/01 10:03:44;;;;;;;0.82;0.70;;;19.10;99.90;;;;;;5016076;28;20209;-72
2023/05/01 10:06:25;;;;;;;0.80;0.75;;;19.40;99.90;;;;;;5015380;28;20250;-74
2023/05/01 10:08:54;;;;;;;0.75;0.75;;;20.00;99.90;;;;;;5009300;28;20201;-72
2023/05/01 10:11:22;;;;;;;0.60;0.60;;;20.30;99.30;;;;;;5013883;28;20220;-72
2023/05/01 10:14:07;;;;;;;1.15;1.00;;;20.60;99.90;;;;;;5014315;28;20204;-72
2023/05/01 10:16:38;;;;;;;0.80;0.80;;;20.80;99.00;;;;;;5011641;28;20852;-73
2023/05/01 10:19:06;;;;;;;0.90;0.75;;;21.00;98.30;;;;;;5022452;28;20201;-75
2023/05/01 10:21:35;;;;;;;1.00;0.90;;;21.30;99.10;;;;;;5010245;28;20209;-71
2023/05/01 10:24:04;;;;;;;0.98;0.70;;;21.30;96.90;;;;;;5019533;28;20313;-70
2023/05/01 10:26:33;;;;;;;0.80;0.77;;;21.50;97.90;;;;;;5008228;28;20218;-72
2023/05/01 10:29:02;;;;;;;0.77;0.60;;;21.80;97.60;;;;;;5009699;28;20232;-71
2023/05/01 10:31:31;;;;;;;2.25;1.58;;;22.20;97.00;;;;;;5002051;28;20313;-73
2023/05/01 10:34:01;;;;;;;1.02;0.70;;;22.50;96.50;;;;;;5016192;28;20262;-72
2023/05/01 10:36:36;;;;;;;0.95;0.73;;;22.50;95.80;;;;;;5010122;28;20261;-73
2023/05/01 10:39:05;;;;;;;0.60;0.50;;;22.60;95.90;;;;;;5015143;28;20285;-74
2023/05/01 10:42:02;;;;;;;0.60;0.40;;;22.60;94.60;;;;;;5008850;28;20707;-74
2023/05/01 10:44:31;;;;;;;0.60;0.60;;;22.40;95.00;;;;;;5010779;28;20287;-73
2023/05/01 10:46:59;;;;;;;1.15;1.05;;;22.20;95.00;;;;;;5010850;28;20211;-73
2023/05/01 10:50:05;;;;;;;0.60;0.50;;;22.10;95.00;;;;;;5009985;28;20222;-73
2023/05/01 10:53:07;;;;;;;0.60;0.55;;;22.20;94.20;;;;;;5016058;28;20217;-73
2023/05/01 10:55:36;;;;;;;0.90;0.73;;;22.30;94.00;;;;;;5012895;28;20229;-73
2023/05/01 10:58:04;;;;;;;0.60;0.50;;;22.30;93.30;;;;;;5013216;28;20951;-75
2023/05/01 11:00:33;;;;;;;0.80;0.60;;;22.40;93.30;;;;;;5011867;28;20237;-72
2023/05/01 11:03:34;;;;;;;0.73;0.73;;;22.40;94.20;;;;;;5009067;28;20714;-72
2023/05/01 11:06:07;;;;;;;0.73;0.60;;;22.60;94.90;;;;;;4945809;28;20327;-73
2023/05/01 11:08:37;;;;;;;2.08;0.90;;;22.90;94.10;;;;;;4985261;28;20228;-72
2023/05/01 11:11:42;;;;;;;0.80;0.60;;;23.00;94.40;;;;;;4995434;28;20645;-72
2023/05/01 11:14:10;;;;;;;1.00;0.90;;;23.20;92.40;;;;;;4987495;28;20230;-72
2023/05/01 11:16:42;;;;;;;0.80;0.80;;;23.60;92.60;;;;;;4992659;28;20733;-73
2023/05/01 11:19:12;;;;;;;1.30;1.02;;;23.80;92.50;;;;;;5002481;28;20217;-73
2023/05/01 11:21:41;;;;;;;0.70;0.60;;;23.80;91.00;;;;;;4993277;28;20212;-73
2023/05/01 11:24:09;;;;;;;1.70;1.60;;;23.90;91.70;;;;;;4996455;28;20675;-75
2023/05/01 11:26:39;;;;;;;1.40;1.10;;;24.00;91.20;;;;;;4990693;28;20208;-74
2023/05/01 11:29:09;;;;;;;1.23;1.13;;;23.70;90.00;;;;;;5000447;28;20287;-72
2023/05/01 11:31:37;;;;;;;0.80;0.80;;;23.70;90.30;;;;;;4996694;28;20251;-75
2023/05/01 11:34:08;;;;;;;0.70;0.60;;;24.20;90.10;;;;;;5003309;28;20251;-73
2023/05/01 11:36:48;;;;;;;1.60;0.98;;;24.20;90.60;;;;;;5001356;28;20211;-73
2023/05/01 11:39:17;;;;;;;0.80;0.60;;;24.10;89.40;;;;;;5005438;28;20253;-73
2023/05/01 11:41:45;;;;;;;0.77;0.70;;;23.60;89.20;;;;;;4995551;28;20268;-74
2023/05/01 11:44:16;;;;;;;0.65;0.60;;;23.90;89.20;;;;;;4999123;28;20232;-71
2023/05/01 11:46:44;;;;;;;0.65;0.60;;;23.80;87.80;;;;;;4998083;28;20209;-73
2023/05/01 11:49:13;;;;;;;1.55;0.52;;;23.70;90.20;;;;;;5004832;28;20214;-73
2023/05/01 11:51:41;;;;;;;1.15;1.05;;;23.70;86.50;;;;;;4996496;28;20705;-73
2023/05/01 11:54:12;;;;;;;0.60;0.45;;;24.00;87.90;;;;;;5003517;28;20231;-74
2023/05/01 11:56:42;;;;;;;0.60;0.47;;;24.30;86.00;;;;;;4992913;28;20203;-74
2023/05/01 11:59:12;;;;;;;0.82;0.50;;;24.60;85.80;;;;;;5001000;28;20290;-73
2023/05/01 12:01:42;;;;;;;0.90;0.90;;;25.00;86.00;;;;;;4999900;28;20243;-73
2023/05/01 12:04:11;;;;;;;1.77;0.70;;;25.20;85.10;;;;;;5029121;22;20241;-68
2023/05/01 12:06:43;;;;;;;0.70;0.63;;;24.80;84.40;;;;;;5049709;28;20214;-65
2023/05/01 12:09:16;;;;;;;0.60;0.50;;;24.70;84.90;;;;;;5055122;28;20264;-65
2023/05/01 12:11:45;;;;;;;0.80;0.60;;;24.60;85.70;;;;;;5050233;28;20226;-66
2023/05/01 12:14:15;;;;;;;0.70;0.60;;;24.50;86.30;;;;;;5057763;28;20239;-65
2023/05/01 12:16:43;;;;;;;0.60;0.60;;;24.50;86.30;;;;;;5055247;28;20206;-65
2023/05/01 12:19:14;;;;;;;1.02;0.50;;;25.10;87.20;;;;;;5063228;28;20213;-65
2023/05/01 12:21:41;;;;;;;0.70;0.60;;;25.30;83.40;;;;;;5057974;28;20210;-63
2023/05/01 12:24:13;;;;;;;1.98;0.50;;;25.40;82.60;;;;;;5061854;28;20632;-65
2023/05/01 12:26:42;;;;;;;0.90;0.80;;;25.30;81.40;;;;;;5051501;28;20276;-65
2023/05/01 12:29:10;;;;;;;0.60;0.60;;;25.50;81.70;;;;;;5054755;28;20206;-64
2023/05/01 12:31:46;;;;;;;0.60;0.50;;;25.80;82.70;;;;;;5056210;28;20413;-65
2023/05/01 12:34:14;;;;;;;0.68;0.50;;;26.10;80.60;;;;;;5060545;28;20222;-66
2023/05/01 12:36:52;;;;;;;0.60;0.50;;;26.20;81.40;;;;;;5056444;28;20325;-65
2023/05/01 12:39:22;;;;;;;0.75;0.73;;;25.60;81.70;;;;;;5061502;28;20292;-65
2023/05/01 12:41:51;;;;;;;0.60;0.50;;;24.90;81.50;;;;;;5056218;28;20252;-66
2023/05/01 12:44:21;;;;;;;1.23;0.85;;;24.40;81.40;;;;;;5056314;28;20708;-67
2023/05/01 12:46:56;;;;;;;0.80;0.80;;;24.20;82.30;;;;;;5060088;28;20612;-66
2023/05/01 12:49:24;;;;;;;0.70;0.50;;;24.10;82.60;;;;;;5058690;28;20210;-66
2023/05/01 12:51:54;;;;;;;0.90;0.60;;;24.10;82.70;;;;;;5054946;28;20229;-67
2023/05/01 12:54:25;;;;;;;1.75;0.80;;;24.10;83.30;;;;;;5055070;28;20218;-65
2023/05/01 12:56:53;;;;;;;0.88;0.73;;;24.20;84.60;;;;;;5055903;28;20641;-66
2023/05/01 12:59:22;;;;;;;1.05;0.90;;;24.20;83.40;;;;;;5058669;28;20232;-64
2023/05/01 13:01:57;;;;;;;1.25;0.98;;;23.90;84.10;;;;;;5052413;28;20264;-65
2023/05/01 13:04:26;;;;;;;0.75;0.60;;;23.50;85.00;;;;;;5056696;28;20271;-65